Time;durP1;ratioP1;P1;durP2;ratioP2;P2;SDS_P1;SDS_P2;PMS_P1;PMS_P2;Temp;Humidity;BMP_temperature;BMP_pressure;BME280_temperature;BME280_humidity;BME280_pressure;Samples;Min_cycle;Max_cycle;Signal;HPM_P1;HPM_P2
2024/03/29 00:07:19;;;;;;;20.80;9.70;;;;;;;12.13;77.82;98485.11;669547;1275;139836;-79
2024/03/29 00:22:22;;;;;;;18.00;10.20;;;;;;;11.99;76.96;98512.07;673836;1264;138805;-79
2024/03/29 00:37:25;;;;;;;23.90;14.10;;;;;;;11.88;76.60;98539.15;668524;1264;138778;-80
2024/03/29 00:52:31;;;;;;;16.40;9.80;;;;;;;12.00;75.50;98561.77;672775;1263;139747;-80
2024/03/29 01:07:35;;;;;;;47.70;22.20;;;;;;;11.80;74.96;98590.55;669561;1265;138687;-79
2024/03/29 01:22:39;;;;;;;82.30;35.90;;;;;;;11.60;75.20;98626.92;672078;1260;138894;-79
2024/03/29 01:37:42;;;;;;;74.70;28.70;;;;;;;11.51;75.30;98662.80;670112;1272;139330;-79
2024/03/29 01:53:07;;;;;;;19.70;9.10;;;;;;;11.38;74.82;98685.65;669129;1261;139275;-79
2024/03/29 02:08:11;;;;;;;11.20;5.90;;;;;;;11.15;75.16;98709.23;668724;1265;138671;-79
2024/03/29 02:23:22;;;;;;;18.80;8.10;;;;;;;11.08;74.35;98733.70;670675;1264;139654;-78
2024/03/29 02:38:25;;;;;;;7.20;3.40;;;;;;;11.12;73.86;98770.81;670149;1262;140533;-79
2024/03/29 02:53:28;;;;;;;6.10;3.30;;;;;;;11.01;73.70;98813.63;669624;1264;138458;-79
2024/03/29 03:23:53;;;;;;;15.60;7.10;;;;;;;10.65;73.48;98890.02;670662;1266;139768;-79
2024/03/29 03:38:56;;;;;;;10.80;5.80;;;;;;;10.47;73.98;98921.47;669558;1266;139460;-80
2024/03/29 03:54:00;;;;;;;14.90;7.50;;;;;;;10.36;74.62;98942.23;674040;1263;139699;-80
2024/03/29 04:09:03;;;;;;;23.50;9.80;;;;;;;10.19;74.37;98941.80;673857;1266;140447;-80
2024/03/29 04:24:09;;;;;;;8.70;5.60;;;;;;;9.94;74.49;98942.30;671742;1264;139054;-79
2024/03/29 04:39:13;;;;;;;6.30;3.30;;;;;;;9.52;74.33;98945.61;671440;1265;188556;-79
2024/03/29 04:54:17;;;;;;;7.00;4.00;;;;;;;9.26;75.34;98956.90;673241;1265;138821;-80
2024/03/29 05:09:25;;;;;;;5.30;3.30;;;;;;;8.85;77.89;98962.31;670936;1262;138332;-78
2024/03/29 05:24:28;;;;;;;3.80;2.50;;;;;;;8.89;79.20;98977.63;669892;1265;138998;-79
2024/03/29 05:39:32;;;;;;;8.30;4.20;;;;;;;8.83;81.21;98988.88;668071;1266;139272;-79
2024/03/29 05:54:35;;;;;;;5.80;3.20;;;;;;;9.44;80.10;98995.52;669676;1275;138501;-79
2024/03/29 06:09:37;;;;;;;7.10;3.90;;;;;;;9.87;80.97;99020.46;669709;1263;140463;-80
2024/03/29 06:24:43;;;;;;;7.30;3.90;;;;;;;12.93;73.81;99025.67;669281;1269;138932;-79
2024/03/29 06:39:48;;;;;;;5.90;2.90;;;;;;;16.91;64.76;99025.58;666474;1264;139251;-79
2024/03/29 06:54:51;;;;;;;5.40;2.80;;;;;;;19.14;56.69;99034.77;666719;1264;138811;-82
2024/03/29 07:09:54;;;;;;;5.80;2.80;;;;;;;19.85;53.04;99066.91;665501;1263;139599;-80
2024/03/29 07:24:57;;;;;;;10.50;3.90;;;;;;;19.94;51.32;99092.52;670521;1264;138514;-80
2024/03/29 07:40:01;;;;;;;3.20;1.80;;;;;;;19.79;50.29;99090.97;669761;1260;142306;-81
2024/03/29 07:55:04;;;;;;;5.80;2.00;;;;;;;20.33;49.68;99097.96;667290;1263;139146;-80
2024/03/29 08:10:10;;;;;;;3.10;1.30;;;;;;;20.60;48.82;99085.90;675044;1264;138700;-81
2024/03/29 08:25:14;;;;;;;4.00;1.70;;;;;;;20.99;48.61;99119.63;675920;1264;139677;-78
2024/03/29 08:40:17;;;;;;;3.60;1.70;;;;;;;21.62;48.11;99146.30;667325;1269;139726;-80
2024/03/29 08:55:21;;;;;;;8.00;2.80;;;;;;;21.53;47.68;99164.30;672861;1263;139569;-79
2024/03/29 09:10:26;;;;;;;9.40;4.80;;;;;;;21.32;48.30;99176.09;672253;1260;138986;-79
2024/03/29 09:25:30;;;;;;;4.90;2.40;;;;;;;21.39;47.77;99176.87;672083;1260;139573;-80
2024/03/29 09:40:34;;;;;;;5.90;1.70;;;;;;;21.29;47.11;99184.20;671777;1272;140101;-81
2024/03/29 09:55:38;;;;;;;4.10;1.60;;;;;;;20.99;46.80;99183.23;673217;1264;139356;-80
2024/03/29 10:10:42;;;;;;;13.50;3.60;;;;;;;20.53;47.09;99184.02;672429;1264;139403;-79
2024/03/29 10:25:46;;;;;;;34.90;5.30;;;;;;;19.74;47.92;99217.36;670284;1265;140174;-81
2024/03/29 10:40:50;;;;;;;19.20;3.10;;;;;;;19.25;48.20;99239.52;671537;1265;138572;-78
2024/03/29 10:55:58;;;;;;;24.80;5.40;;;;;;;19.25;48.84;99223.16;670361;1263;140930;-79
2024/03/29 11:11:04;;;;;;;22.00;4.00;;;;;;;19.82;49.10;99239.45;668514;1266;140655;-80
2024/03/29 11:26:08;;;;;;;4.70;2.10;;;;;;;20.08;48.16;99227.46;666972;1265;139768;-79
2024/03/29 11:55:38;;;;;;;5.80;2.90;;;;;;;20.14;47.27;99246.14;652214;1297;545498;-79
2024/03/29 12:10:42;;;;;;;12.60;2.90;;;;;;;19.98;47.92;99211.73;667087;1277;138865;-78
2024/03/29 12:25:46;;;;;;;10.00;2.90;;;;;;;20.02;47.02;99223.23;666453;1273;139035;-79
2024/03/29 12:40:50;;;;;;;6.30;3.00;;;;;;;20.68;46.55;99241.30;668979;1286;139126;-79
2024/03/29 12:55:54;;;;;;;7.20;4.60;;;;;;;20.49;46.85;99249.80;668373;1277;138554;-82
2024/03/29 13:10:58;;;;;;;7.30;2.70;;;;;;;20.42;46.67;99252.54;666754;1272;138311;-82
2024/03/29 13:26:01;;;;;;;6.40;2.20;;;;;;;20.26;46.69;99254.39;668439;1272;137857;-81
2024/03/29 13:41:05;;;;;;;6.60;3.90;;;;;;;20.72;46.53;99232.98;669565;1277;138400;-82
2024/03/29 13:56:08;;;;;;;14.40;3.00;;;;;;;20.85;46.06;99229.54;673741;1275;138154;-84
2024/03/29 14:11:11;;;;;;;16.10;7.90;;;;;;;20.75;45.75;99245.61;668853;1276;138627;-81
2024/03/29 14:26:14;;;;;;;12.30;3.40;;;;;;;20.19;45.37;99262.25;668344;1273;139244;-80
2024/03/29 14:41:21;;;;;;;7.80;3.00;;;;;;;19.89;44.94;99264.21;665676;1271;139368;-81
2024/03/29 14:56:25;;;;;;;10.70;3.00;;;;;;;19.83;44.70;99240.91;665770;1271;138865;-80
2024/03/29 15:11:28;;;;;;;8.10;2.80;;;;;;;20.24;44.40;99231.59;665515;1286;138951;-82
2024/03/29 15:26:32;;;;;;;5.30;2.00;;;;;;;20.15;43.30;99215.22;664720;1266;138394;-80
2024/03/29 15:41:39;;;;;;;13.50;6.90;;;;;;;19.71;44.30;99214.21;665886;1269;137761;-80
2024/03/29 15:56:42;;;;;;;5.00;2.00;;;;;;;19.70;45.08;99203.19;665457;1270;139130;-81
2024/03/29 16:11:45;;;;;;;32.70;11.80;;;;;;;19.61;45.30;99196.48;664916;1270;137960;-80
2024/03/29 16:26:49;;;;;;;13.00;6.00;;;;;;;19.23;46.24;99176.14;667514;1265;139047;-80
2024/03/29 16:41:54;;;;;;;45.20;17.60;;;;;;;18.75;47.75;99181.96;670467;1268;138988;-80
2024/03/29 16:56:57;;;;;;;53.40;24.30;;;;;;;18.37;48.71;99170.69;669811;1271;139465;-81
2024/03/29 17:12:01;;;;;;;54.70;21.90;;;;;;;17.92;49.70;99170.23;670283;1270;138802;-82
2024/03/29 17:27:05;;;;;;;59.00;30.20;;;;;;;17.61;50.20;99164.08;669863;1269;138579;-81
2024/03/29 17:42:08;;;;;;;30.70;12.30;;;;;;;17.42;50.18;99177.90;670818;1265;139252;-82
2024/03/29 17:57:12;;;;;;;13.80;6.00;;;;;;;17.17;50.08;99188.38;673706;1265;139228;-81
2024/03/29 18:12:16;;;;;;;20.00;9.40;;;;;;;17.20;49.21;99173.17;674057;1262;138796;-79
2024/03/29 18:27:19;;;;;;;16.30;7.20;;;;;;;17.11;49.62;99170.20;671515;1264;139207;-79
2024/03/29 18:42:22;;;;;;;10.80;3.90;;;;;;;16.86;50.36;99165.99;671130;1265;139222;-80
2024/03/29 18:57:27;;;;;;;17.50;7.30;;;;;;;16.84;50.52;99177.88;669681;1277;138857;-79
2024/03/29 19:12:30;;;;;;;19.00;8.90;;;;;;;17.01;50.55;99174.97;674107;1265;138934;-81
2024/03/29 19:27:33;;;;;;;13.90;7.40;;;;;;;17.11;50.50;99142.20;673208;1264;139495;-83
2024/03/29 19:42:36;;;;;;;25.00;16.90;;;;;;;17.07;50.67;99132.66;672403;1262;139595;-80
2024/03/29 19:57:40;;;;;;;24.70;11.20;;;;;;;15.68;53.65;99127.04;673411;1260;139246;-79
2024/03/29 20:12:46;;;;;;;20.60;8.70;;;;;;;15.65;53.75;99126.50;676621;1263;139790;-81
2024/03/29 20:27:50;;;;;;;9.60;5.50;;;;;;;15.61;53.91;99123.31;676764;1262;2032415;-81
2024/03/29 20:42:53;;;;;;;16.40;7.50;;;;;;;15.62;53.91;99123.80;676536;1265;138542;-80
2024/03/29 20:57:56;;;;;;;14.10;5.70;;;;;;;15.77;54.12;99133.15;672606;1271;138347;-81
2024/03/29 21:13:01;;;;;;;13.30;6.50;;;;;;;15.73;54.66;99134.31;670074;1261;139085;-82
2024/03/29 21:28:04;;;;;;;11.60;5.50;;;;;;;15.84;55.10;99146.20;670929;1263;138714;-79
2024/03/29 21:43:09;;;;;;;10.30;4.10;;;;;;;15.71;55.82;99156.02;670375;1265;138752;-82
2024/03/29 21:58:12;;;;;;;13.20;6.60;;;;;;;15.88;55.98;99190.81;676362;1264;138955;-81
2024/03/29 22:13:15;;;;;;;12.10;5.60;;;;;;;15.53;57.28;99185.16;674551;1263;138795;-79
2024/03/29 22:28:18;;;;;;;10.30;4.60;;;;;;;15.29;58.61;99195.93;670965;1265;138164;-80
2024/03/29 22:43:21;;;;;;;10.40;4.80;;;;;;;15.10;59.45;99186.11;671015;1265;138687;-80
2024/03/29 22:58:24;;;;;;;11.90;5.20;;;;;;;14.92;60.23;99180.54;667750;1265;138284;-82
2024/03/29 23:13:30;;;;;;;10.00;5.50;;;;;;;14.74;61.06;99189.64;668668;1265;139265;-82
2024/03/29 23:28:33;;;;;;;9.40;5.00;;;;;;;14.58;62.35;99191.77;666877;1266;139104;-83
2024/03/29 23:43:37;;;;;;;9.10;4.80;;;;;;;14.54;62.54;99201.04;672024;1266;138144;-82
2024/03/29 23:58:40;;;;;;;12.00;5.00;;;;;;;14.46;63.48;99198.64;669612;1266;255433;-81
